createdAt,value
2022-11-19T00:00:17.295Z,1.10
2022-11-19T00:01:15.985Z,1.47
2022-11-19T00:02:13.482Z,1.99
2022-11-19T00:03:10.879Z,2.22
2022-11-19T00:04:08.259Z,1.21
2022-11-19T00:05:05.736Z,1.24
2022-11-19T00:06:08.332Z,1.51
2022-11-19T00:07:05.820Z,7.21
2022-11-19T00:08:03.238Z,7.06
2022-11-19T00:09:00.688Z,2.59
2022-11-19T00:09:57.969Z,1.67
2022-11-19T00:10:55.912Z,1.95
2022-11-19T00:12:11.924Z,2.78
2022-11-19T00:13:09.299Z,5.95
2022-11-19T00:14:07.557Z,6.94
2022-11-19T00:15:05.183Z,3.24
2022-11-19T00:16:07.373Z,2.92
2022-11-19T00:17:04.670Z,3.07
2022-11-19T00:18:02.792Z,5.27
2022-11-19T00:19:00.367Z,4.81
2022-11-19T00:19:57.664Z,2.44
2022-11-19T00:20:56.457Z,0.64
2022-11-19T00:21:53.817Z,7.88
2022-11-19T00:22:53.324Z,14.16
2022-11-19T00:23:53.666Z,5.21
2022-11-19T00:24:50.956Z,3.72
2022-11-19T00:25:48.320Z,3.18
2022-11-19T00:26:45.639Z,2.31
2022-11-19T00:27:43.059Z,2.35
2022-11-19T00:28:41.171Z,3.21
2022-11-19T00:29:38.501Z,4.33
2022-11-19T00:30:51.135Z,2.62
2022-11-19T00:31:48.669Z,1.75
2022-11-19T00:32:46.554Z,4.44
2022-11-19T00:33:45.440Z,5.35
2022-11-19T00:34:42.915Z,2.27
2022-11-19T00:35:40.549Z,2.65
2022-11-19T00:36:37.974Z,3.43
2022-11-19T00:37:35.365Z,3.10
2022-11-19T00:38:32.789Z,3.44
2022-11-19T00:39:30.104Z,3.15
2022-11-19T00:40:27.503Z,4.67
2022-11-19T00:41:24.775Z,0.84
2022-11-19T00:42:22.153Z,0.59
2022-11-19T00:43:37.774Z,0.58
2022-11-19T00:44:37.308Z,0.70
2022-11-19T00:45:35.005Z,0.68
2022-11-19T00:46:32.503Z,0.50
2022-11-19T00:47:29.814Z,0.46
2022-11-19T00:48:27.231Z,0.66
2022-11-19T00:49:24.542Z,0.77
2022-11-19T00:50:21.894Z,0.70
2022-11-19T00:51:20.311Z,0.66
2022-11-19T00:52:18.681Z,0.56
2022-11-19T00:53:15.976Z,1.34
2022-11-19T00:54:13.329Z,2.27
2022-11-19T00:55:10.656Z,4.30
2022-11-19T00:56:09.633Z,4.35
2022-11-19T00:57:07.000Z,4.65
2022-11-19T00:58:04.554Z,3.65
2022-11-19T00:59:01.931Z,4.77
2022-11-19T00:59:59.279Z,4.50
2022-11-19T01:00:56.703Z,3.42
2022-11-19T01:01:54.115Z,2.85
2022-11-19T01:02:51.514Z,2.55
2022-11-19T01:03:49.029Z,1.26
2022-11-19T01:04:46.414Z,0.83
2022-11-19T01:05:43.966Z,1.67
2022-11-19T01:06:41.363Z,2.32
2022-11-19T01:07:38.703Z,1.90
2022-11-19T01:08:36.854Z,3.85
2022-11-19T01:09:34.134Z,4.48
2022-11-19T01:10:31.454Z,3.23
2022-11-19T01:11:30.008Z,4.06
2022-11-19T01:12:27.352Z,2.88
2022-11-19T01:13:36.609Z,1.52
2022-11-19T01:14:33.901Z,1.10
2022-11-19T01:15:31.236Z,1.44
2022-11-19T01:16:33.727Z,1.49
2022-11-19T01:17:31.077Z,1.27
2022-11-19T01:18:28.442Z,1.99
2022-11-19T01:19:25.785Z,2.23
2022-11-19T01:20:23.180Z,0.96
2022-11-19T01:21:21.976Z,0.84
2022-11-19T01:22:19.272Z,0.98
2022-11-19T01:23:16.630Z,1.25
2022-11-19T01:24:14.049Z,1.06
2022-11-19T01:25:11.382Z,15.52
2022-11-19T01:26:09.266Z,2.98
2022-11-19T01:27:06.592Z,9.20
2022-11-19T01:28:04.717Z,15.48
2022-11-19T01:29:02.868Z,11.24
2022-11-19T01:30:00.148Z,13.80
2022-11-19T01:30:57.571Z,9.33
2022-11-19T01:31:54.894Z,6.42
2022-11-19T01:32:52.202Z,4.83
2022-11-19T01:33:49.637Z,9.76
2022-11-19T01:34:47.017Z,4.03
2022-11-19T01:35:44.405Z,2.35
2022-11-19T01:36:41.736Z,1.47
2022-11-19T01:37:39.056Z,2.94
2022-11-19T01:38:36.532Z,7.44
2022-11-19T01:39:33.798Z,4.62
2022-11-19T01:40:31.905Z,2.06
2022-11-19T01:41:31.068Z,2.80
2022-11-19T01:42:48.693Z,6.11
2022-11-19T01:43:54.898Z,2.26
2022-11-19T01:45:06.089Z,2.17
2022-11-19T01:46:03.478Z,2.71
2022-11-19T01:47:00.813Z,3.07
2022-11-19T01:48:03.778Z,3.39
2022-11-19T01:49:21.082Z,1.99
2022-11-19T01:50:18.775Z,3.12
2022-11-19T01:51:20.694Z,3.28
2022-11-19T01:52:18.153Z,1.95
2022-11-19T01:53:16.045Z,1.72
2022-11-19T01:54:23.055Z,2.02
2022-11-19T01:55:20.553Z,1.72
2022-11-19T01:56:21.083Z,2.34
2022-11-19T01:57:19.113Z,1.33
2022-11-19T01:58:19.671Z,1.20
2022-11-19T01:59:18.986Z,1.12
2022-11-19T02:00:17.314Z,0.97
2022-11-19T02:01:16.268Z,1.45
2022-11-19T02:02:13.605Z,1.19
2022-11-19T02:03:12.890Z,1.36
2022-11-19T02:04:11.151Z,1.50
2022-11-19T02:05:08.689Z,1.94
2022-11-19T02:06:06.427Z,2.28
2022-11-19T02:07:04.353Z,2.52
2022-11-19T02:08:06.486Z,1.14
2022-11-19T02:09:03.848Z,1.10
2022-11-19T02:10:03.197Z,2.11
2022-11-19T02:11:12.406Z,1.62
2022-11-19T02:12:15.521Z,1.49
2022-11-19T02:13:21.714Z,1.89
2022-11-19T02:14:21.864Z,1.83
2022-11-19T02:15:39.420Z,1.70
2022-11-19T02:17:14.854Z,1.26
2022-11-19T02:18:15.031Z,0.83
2022-11-19T02:19:18.314Z,0.85
2022-11-19T02:20:30.592Z,1.01
2022-11-19T02:21:34.253Z,0.80
2022-11-19T02:22:31.539Z,1.00
2022-11-19T02:23:46.438Z,0.90
2022-11-19T02:24:43.959Z,0.87
2022-11-19T02:25:59.797Z,0.70
2022-11-19T02:26:57.109Z,0.87
2022-11-19T02:28:12.746Z,0.60
2022-11-19T02:29:12.924Z,0.77
2022-11-19T02:30:16.700Z,0.80
2022-11-19T02:31:17.103Z,0.72
2022-11-19T02:32:22.451Z,0.70
2022-11-19T02:33:36.826Z,0.71
2022-11-19T02:34:41.349Z,0.70
2022-11-19T02:35:58.902Z,0.81
2022-11-19T02:37:16.440Z,1.04
2022-11-19T02:38:20.153Z,1.01
2022-11-19T02:39:20.489Z,1.35
2022-11-19T02:40:25.923Z,1.49
2022-11-19T02:41:36.751Z,1.55
2022-11-19T02:42:44.894Z,1.67
2022-11-19T02:43:45.584Z,0.79
2022-11-19T02:45:02.273Z,0.94
2022-11-19T02:46:05.066Z,0.88
2022-11-19T02:47:08.464Z,0.76
2022-11-19T02:48:11.109Z,0.81
2022-11-19T02:49:10.440Z,0.75
2022-11-19T02:50:17.801Z,0.75
2022-11-19T02:51:16.635Z,0.77
2022-11-19T02:52:15.405Z,0.80
2022-11-19T02:53:12.715Z,0.86
2022-11-19T02:54:10.052Z,0.71
2022-11-19T02:55:07.576Z,0.83
2022-11-19T02:56:31.044Z,0.98
2022-11-19T02:57:28.380Z,0.85
2022-11-19T02:58:44.640Z,0.80
2022-11-19T03:00:05.385Z,0.87
2022-11-19T03:01:28.212Z,0.93
2022-11-19T03:02:49.368Z,0.85
2022-11-19T03:04:06.177Z,0.80
2022-11-19T03:05:07.655Z,0.84
2022-11-19T03:06:09.309Z,0.61
2022-11-19T03:07:12.453Z,0.67
2022-11-19T03:08:09.822Z,0.61
2022-11-19T03:09:07.310Z,0.68
2022-11-19T03:10:08.131Z,0.72
2022-11-19T03:11:05.456Z,0.75
2022-11-19T03:12:20.222Z,0.52
2022-11-19T03:13:43.116Z,0.72
2022-11-19T03:15:25.205Z,0.59
2022-11-19T03:16:42.542Z,0.72
2022-11-19T03:17:51.777Z,0.72
2022-11-19T03:18:55.223Z,0.79
2022-11-19T03:20:10.336Z,0.78
2022-11-19T03:21:13.100Z,0.67
2022-11-19T03:22:18.571Z,0.82
2022-11-19T03:23:36.115Z,0.73
2022-11-19T03:24:56.424Z,0.76
2022-11-19T03:25:58.714Z,0.82
2022-11-19T03:26:55.989Z,0.87
2022-11-19T03:27:57.821Z,0.88
2022-11-19T03:28:59.162Z,0.72
2022-11-19T03:29:59.819Z,0.66
2022-11-19T03:31:00.448Z,0.78
2022-11-19T03:32:07.627Z,0.85
2022-11-19T03:33:09.388Z,0.83
2022-11-19T03:34:11.487Z,0.82
2022-11-19T03:35:12.504Z,0.90
2022-11-19T03:36:22.250Z,0.89
2022-11-19T03:37:23.156Z,0.80
2022-11-19T03:38:25.375Z,0.75
2022-11-19T03:39:23.613Z,1.08
2022-11-19T03:40:23.502Z,0.90
2022-11-19T03:41:23.994Z,1.11
2022-11-19T03:42:24.584Z,1.15
2022-11-19T03:43:25.465Z,0.99
2022-11-19T03:44:45.635Z,0.97
2022-11-19T03:45:45.538Z,0.94
2022-11-19T03:46:46.431Z,0.92
2022-11-19T03:47:46.335Z,1.13
2022-11-19T03:48:46.946Z,1.12
2022-11-19T03:49:46.695Z,1.12
2022-11-19T03:50:57.784Z,0.95
2022-11-19T03:52:11.381Z,1.14
2022-11-19T03:53:08.886Z,1.06
2022-11-19T03:54:06.430Z,1.23
2022-11-19T03:55:03.836Z,1.16
2022-11-19T03:56:16.224Z,1.31
2022-11-19T03:57:17.077Z,1.44
2022-11-19T03:58:14.681Z,1.10
2022-11-19T03:59:12.950Z,1.22
2022-11-19T04:00:10.590Z,1.20
2022-11-19T04:01:08.540Z,1.23
2022-11-19T04:02:10.956Z,1.33
2022-11-19T04:03:08.527Z,1.24
2022-11-19T04:04:24.280Z,1.25
2022-11-19T04:05:21.583Z,1.27
2022-11-19T04:06:18.881Z,1.26
2022-11-19T04:07:19.217Z,1.44
2022-11-19T04:08:16.569Z,1.41
2022-11-19T04:09:14.119Z,1.32
2022-11-19T04:10:11.443Z,1.39
2022-11-19T04:12:05.253Z,1.48
2022-11-19T04:13:02.646Z,1.42
2022-11-19T04:14:00.021Z,1.33
2022-11-19T04:14:57.408Z,1.45
2022-11-19T04:15:54.726Z,1.43
2022-11-19T04:16:52.028Z,1.29
2022-11-19T04:17:49.316Z,1.22
2022-11-19T04:18:46.644Z,1.20
2022-11-19T04:19:44.076Z,1.28
2022-11-19T04:20:42.396Z,1.37
2022-11-19T04:21:39.756Z,1.30
2022-11-19T04:22:37.099Z,1.26
2022-11-19T04:23:34.430Z,1.32
2022-11-19T04:24:31.888Z,1.26
2022-11-19T04:25:29.206Z,1.18
2022-11-19T04:26:26.532Z,1.35
2022-11-19T04:27:23.875Z,1.56
2022-11-19T04:28:21.154Z,1.35
2022-11-19T04:29:18.693Z,1.30
2022-11-19T04:30:16.367Z,1.46
2022-11-19T04:31:17.834Z,1.34
2022-11-19T04:32:15.540Z,1.38
2022-11-19T04:33:12.854Z,1.32
2022-11-19T04:34:10.235Z,1.33
2022-11-19T04:35:07.772Z,1.47
2022-11-19T04:36:05.195Z,1.35
2022-11-19T04:37:02.501Z,1.34
2022-11-19T04:37:59.903Z,1.33
2022-11-19T04:38:57.294Z,1.29
2022-11-19T04:39:54.597Z,1.32
2022-11-19T04:40:51.914Z,1.34
2022-11-19T04:41:49.247Z,1.40
2022-11-19T04:42:46.574Z,1.37
2022-11-19T04:43:43.937Z,1.27
2022-11-19T04:44:41.305Z,1.42
2022-11-19T04:45:38.652Z,1.25
2022-11-19T04:46:36.089Z,1.37
2022-11-19T04:47:33.397Z,1.25
2022-11-19T04:48:30.692Z,1.27
2022-11-19T04:49:27.975Z,1.27
2022-11-19T04:50:25.376Z,1.55
2022-11-19T04:51:22.739Z,1.50
2022-11-19T04:52:20.531Z,1.44
2022-11-19T04:53:18.125Z,1.38
2022-11-19T04:54:15.988Z,1.12
2022-11-19T04:55:13.807Z,1.47
2022-11-19T04:56:11.113Z,1.31
2022-11-19T04:57:08.431Z,1.36
2022-11-19T04:58:05.688Z,1.32
2022-11-19T04:59:03.338Z,1.50
2022-11-19T05:00:00.758Z,1.32
2022-11-19T05:00:58.162Z,1.50
2022-11-19T05:01:55.513Z,1.78
2022-11-19T05:02:52.998Z,1.40
2022-11-19T05:03:50.794Z,1.37
2022-11-19T05:04:48.133Z,1.44
2022-11-19T05:05:45.522Z,1.69
2022-11-19T05:06:42.886Z,1.55
2022-11-19T05:07:40.246Z,1.39
2022-11-19T05:08:37.616Z,1.53
2022-11-19T05:09:34.982Z,1.40
2022-11-19T05:10:32.311Z,1.67
2022-11-19T05:11:29.586Z,1.66
2022-11-19T05:12:27.007Z,1.78
2022-11-19T05:13:24.354Z,1.61
2022-11-19T05:14:23.744Z,1.47
2022-11-19T05:15:24.830Z,1.60
2022-11-19T05:16:22.280Z,1.42
2022-11-19T05:17:19.636Z,1.62
2022-11-19T05:18:17.082Z,1.63
2022-11-19T05:19:14.447Z,1.40
2022-11-19T05:20:11.917Z,1.43
2022-11-19T05:21:09.231Z,1.52
2022-11-19T05:22:06.553Z,1.98
2022-11-19T05:23:03.967Z,1.74
2022-11-19T05:24:01.292Z,1.56
2022-11-19T05:24:58.668Z,1.46
2022-11-19T05:25:56.073Z,1.85
2022-11-19T05:26:53.440Z,1.51
2022-11-19T05:27:50.897Z,1.63
2022-11-19T05:28:48.205Z,1.38
2022-11-19T05:29:45.462Z,1.41
2022-11-19T05:30:42.779Z,1.60
2022-11-19T05:31:40.141Z,1.49
2022-11-19T05:32:37.691Z,1.45
2022-11-19T05:33:35.040Z,1.63
2022-11-19T05:34:32.383Z,1.72
2022-11-19T05:35:29.736Z,1.80
2022-11-19T05:36:27.081Z,1.67
2022-11-19T05:37:24.369Z,1.73
2022-11-19T05:38:21.702Z,2.03
2022-11-19T05:39:22.110Z,1.90
2022-11-19T05:40:19.830Z,2.41
2022-11-19T05:41:17.162Z,2.58
2022-11-19T05:42:14.454Z,2.45
2022-11-19T05:43:11.985Z,2.20
2022-11-19T05:44:09.320Z,2.28
2022-11-19T05:45:07.225Z,2.23
2022-11-19T05:46:04.556Z,2.35
2022-11-19T05:47:01.914Z,2.18
2022-11-19T05:47:59.400Z,2.09
2022-11-19T05:48:56.666Z,2.11
2022-11-19T05:49:53.969Z,2.18
2022-11-19T05:50:51.321Z,2.10
2022-11-19T05:51:48.702Z,1.91
2022-11-19T05:52:46.102Z,1.92
2022-11-19T05:53:44.174Z,1.90
2022-11-19T05:54:41.621Z,1.59
2022-11-19T05:55:38.981Z,1.73
2022-11-19T05:56:36.272Z,1.61
2022-11-19T05:57:33.611Z,1.45
2022-11-19T05:58:30.992Z,1.98
2022-11-19T05:59:28.290Z,1.76
2022-11-19T06:00:25.772Z,1.56
2022-11-19T06:01:26.660Z,1.71
2022-11-19T06:02:24.136Z,1.82
2022-11-19T06:03:21.501Z,1.76
2022-11-19T06:04:23.598Z,1.87
2022-11-19T06:05:21.270Z,1.55
2022-11-19T06:06:18.631Z,1.47
2022-11-19T06:07:16.051Z,1.30
2022-11-19T06:08:13.435Z,1.18
2022-11-19T06:09:10.845Z,1.58
2022-11-19T06:10:08.549Z,1.45
2022-11-19T06:11:05.999Z,1.28
2022-11-19T06:12:03.348Z,1.50
2022-11-19T06:13:00.706Z,1.61
2022-11-19T06:13:58.133Z,1.71
2022-11-19T06:14:55.875Z,1.64
2022-11-19T06:15:53.206Z,1.72
2022-11-19T06:16:51.837Z,1.81
2022-11-19T06:17:49.735Z,2.00
2022-11-19T06:18:47.104Z,1.98
2022-11-19T06:19:44.453Z,1.61
2022-11-19T06:20:41.810Z,2.27
2022-11-19T06:21:39.142Z,4.50
2022-11-19T06:22:37.232Z,4.20
2022-11-19T06:23:34.506Z,2.95
2022-11-19T06:24:31.866Z,2.34
2022-11-19T06:25:29.186Z,2.32
2022-11-19T06:26:28.683Z,2.33
2022-11-19T06:27:26.012Z,2.99
2022-11-19T06:28:23.322Z,3.40
2022-11-19T06:29:21.003Z,2.21
2022-11-19T06:30:18.712Z,2.46
2022-11-19T06:31:16.077Z,2.05
2022-11-19T06:32:13.379Z,1.73
2022-11-19T06:33:10.699Z,1.67
2022-11-19T06:34:08.143Z,1.74
2022-11-19T06:35:05.654Z,1.53
2022-11-19T06:36:03.140Z,2.04
2022-11-19T06:37:00.518Z,2.34
2022-11-19T06:37:57.825Z,2.46
2022-11-19T06:38:55.095Z,2.23
2022-11-19T06:39:52.432Z,2.37
2022-11-19T06:40:49.777Z,1.89
2022-11-19T06:41:48.851Z,1.94
2022-11-19T06:42:50.832Z,2.04
2022-11-19T06:43:48.517Z,1.93
2022-11-19T06:44:45.886Z,1.76
2022-11-19T06:45:43.161Z,1.63
2022-11-19T06:46:40.497Z,1.78
2022-11-19T06:47:38.792Z,1.96
2022-11-19T06:48:36.327Z,2.33
2022-11-19T06:49:33.611Z,3.67
2022-11-19T06:50:31.540Z,2.73
2022-11-19T06:51:31.243Z,2.71
2022-11-19T06:52:28.635Z,3.06
2022-11-19T06:53:25.971Z,2.64
2022-11-19T06:54:23.324Z,2.33
2022-11-19T06:55:20.657Z,1.72
2022-11-19T06:56:17.930Z,1.61
2022-11-19T06:57:15.284Z,1.47
2022-11-19T06:58:14.572Z,1.52
2022-11-19T06:59:11.858Z,1.38
2022-11-19T07:00:09.563Z,1.70
2022-11-19T07:01:07.373Z,1.57
2022-11-19T07:02:05.319Z,1.69
2022-11-19T07:03:02.845Z,1.70
2022-11-19T07:04:00.192Z,1.56
2022-11-19T07:04:57.477Z,1.79
2022-11-19T07:05:57.151Z,1.70
2022-11-19T07:06:54.722Z,1.73
2022-11-19T07:07:52.147Z,1.58
2022-11-19T07:08:49.498Z,1.79
2022-11-19T07:09:46.792Z,1.70
2022-11-19T07:10:44.186Z,1.63
2022-11-19T07:11:41.569Z,1.88
2022-11-19T07:12:38.946Z,1.84
2022-11-19T07:13:55.744Z,1.70
2022-11-19T07:14:53.136Z,1.68
2022-11-19T07:15:50.471Z,1.76
2022-11-19T07:16:47.765Z,1.87
2022-11-19T07:17:45.180Z,1.90
2022-11-19T07:18:42.547Z,1.83
2022-11-19T07:19:39.876Z,1.79
2022-11-19T07:20:37.203Z,1.79
2022-11-19T07:21:35.328Z,1.69
2022-11-19T07:22:32.860Z,1.89
2022-11-19T07:23:33.022Z,1.91
2022-11-19T07:24:30.344Z,1.74
2022-11-19T07:25:28.359Z,1.75
2022-11-19T07:26:26.420Z,1.80
2022-11-19T07:27:23.831Z,1.96
2022-11-19T07:28:21.096Z,2.11
2022-11-19T07:29:18.745Z,1.94
2022-11-19T07:30:17.137Z,2.15
2022-11-19T07:31:14.457Z,2.69
2022-11-19T07:32:11.806Z,3.57
2022-11-19T07:33:09.164Z,4.38
2022-11-19T07:34:07.773Z,4.65
2022-11-19T07:35:05.272Z,5.29
2022-11-19T07:36:02.933Z,4.63
2022-11-19T07:37:00.328Z,5.18
2022-11-19T07:37:57.615Z,5.45
2022-11-19T07:38:55.036Z,5.50
2022-11-19T07:39:52.356Z,6.88
2022-11-19T07:40:53.802Z,7.46
2022-11-19T07:42:09.556Z,9.74
2022-11-19T07:43:06.846Z,13.71
2022-11-19T07:44:04.485Z,13.52
2022-11-19T07:45:03.119Z,12.75
2022-11-19T07:46:05.393Z,13.32
2022-11-19T07:47:02.796Z,12.25
2022-11-19T07:48:00.126Z,12.49
2022-11-19T07:48:58.038Z,11.35
2022-11-19T07:49:55.516Z,9.72
2022-11-19T07:50:56.480Z,9.33
2022-11-19T07:51:54.713Z,10.01
2022-11-19T07:52:52.073Z,10.79
2022-11-19T07:53:49.851Z,9.64
2022-11-19T07:54:47.434Z,8.95
2022-11-19T07:55:47.115Z,8.76
2022-11-19T07:56:44.732Z,8.66
2022-11-19T07:57:42.013Z,8.19
2022-11-19T07:58:41.557Z,8.32
2022-11-19T07:59:39.533Z,7.81
2022-11-19T08:00:37.253Z,6.91
2022-11-19T08:01:34.712Z,6.14
2022-11-19T08:02:32.196Z,5.07
2022-11-19T08:03:29.510Z,5.19
2022-11-19T08:04:29.651Z,5.13
2022-11-19T08:05:26.937Z,5.64
2022-11-19T08:06:25.999Z,5.78
2022-11-19T08:07:23.381Z,6.09
2022-11-19T08:08:20.764Z,6.55
2022-11-19T08:09:18.452Z,6.34
2022-11-19T08:10:16.171Z,8.14
2022-11-19T08:11:14.903Z,9.05
2022-11-19T08:12:12.266Z,10.54
2022-11-19T08:13:09.610Z,9.24
2022-11-19T08:14:06.975Z,10.14
2022-11-19T08:15:04.619Z,10.31
2022-11-19T08:16:06.038Z,9.88
2022-11-19T08:17:21.803Z,10.06
2022-11-19T08:18:19.080Z,13.42
2022-11-19T08:19:16.636Z,16.17
2022-11-19T08:20:16.264Z,23.29
2022-11-19T08:21:13.584Z,23.50
2022-11-19T08:22:11.575Z,23.46
2022-11-19T08:23:09.960Z,23.04
2022-11-19T08:24:07.802Z,23.14
2022-11-19T08:25:06.274Z,23.18
2022-11-19T08:26:04.400Z,23.45
2022-11-19T08:27:01.693Z,24.06
2022-11-19T08:27:59.144Z,23.46
2022-11-19T08:28:56.448Z,21.95
2022-11-19T08:29:53.897Z,20.45
2022-11-19T08:30:51.311Z,20.32
2022-11-19T08:31:48.703Z,18.61
2022-11-19T08:32:46.018Z,18.36
2022-11-19T08:33:43.313Z,17.71
2022-11-19T08:34:40.685Z,16.50
2022-11-19T08:35:38.009Z,12.97
2022-11-19T08:36:35.656Z,9.74
2022-11-19T08:37:32.968Z,8.54
2022-11-19T08:38:34.519Z,6.83
2022-11-19T08:39:34.701Z,7.46
2022-11-19T08:40:32.295Z,7.54
2022-11-19T08:41:48.558Z,7.80
2022-11-19T08:43:00.892Z,7.05
2022-11-19T08:44:03.838Z,6.79
2022-11-19T08:45:01.238Z,6.82
2022-11-19T08:45:58.598Z,6.57
2022-11-19T08:46:55.919Z,6.42
2022-11-19T08:47:54.017Z,6.72
2022-11-19T08:48:51.437Z,6.80
2022-11-19T08:49:48.791Z,7.08
2022-11-19T08:50:46.129Z,6.58
2022-11-19T08:51:43.466Z,6.09
2022-11-19T08:52:40.815Z,6.52
2022-11-19T08:53:38.197Z,5.75
2022-11-19T08:54:35.518Z,4.84
2022-11-19T08:55:33.234Z,4.37
2022-11-19T08:56:30.599Z,3.89
2022-11-19T08:57:27.909Z,3.98
2022-11-19T08:58:25.373Z,3.87
2022-11-19T08:59:22.915Z,4.11
2022-11-19T09:00:20.417Z,4.04
2022-11-19T09:01:17.977Z,3.76
2022-11-19T09:02:15.401Z,3.71
2022-11-19T09:03:12.800Z,3.34
2022-11-19T09:04:10.116Z,3.59
2022-11-19T09:05:11.849Z,3.56
2022-11-19T09:06:12.508Z,3.47
2022-11-19T09:07:09.916Z,3.23
2022-11-19T09:08:08.023Z,3.06
2022-11-19T09:09:05.352Z,2.97
2022-11-19T09:10:02.712Z,3.07
2022-11-19T09:11:00.037Z,2.97
2022-11-19T09:11:57.401Z,2.91
2022-11-19T09:12:54.750Z,3.39
2022-11-19T09:13:52.116Z,3.56
2022-11-19T09:14:50.637Z,3.75
2022-11-19T09:15:48.697Z,3.99
2022-11-19T09:16:46.037Z,4.46
2022-11-19T09:17:46.813Z,3.98
2022-11-19T09:18:44.520Z,4.17
2022-11-19T09:19:41.980Z,4.44
2022-11-19T09:20:39.307Z,4.56
2022-11-19T09:21:36.663Z,4.59
2022-11-19T09:22:34.135Z,4.69
2022-11-19T09:23:31.458Z,4.89
2022-11-19T09:24:28.761Z,4.88
2022-11-19T09:25:26.112Z,4.78
2022-11-19T09:26:23.441Z,4.58
2022-11-19T09:27:20.786Z,4.74
2022-11-19T09:28:18.111Z,4.64
2022-11-19T09:29:15.469Z,5.14
2022-11-19T09:30:13.154Z,4.97
2022-11-19T09:31:12.091Z,4.42
2022-11-19T09:32:09.423Z,4.15
2022-11-19T09:33:06.860Z,3.84
2022-11-19T09:34:04.317Z,4.33
2022-11-19T09:35:01.682Z,4.80
2022-11-19T09:35:58.956Z,4.33
2022-11-19T09:36:56.336Z,3.88
2022-11-19T09:37:53.697Z,3.41
2022-11-19T09:38:51.050Z,2.94
2022-11-19T09:39:48.397Z,3.00
2022-11-19T09:40:51.357Z,2.70
2022-11-19T09:42:27.064Z,2.59
2022-11-19T09:43:52.575Z,2.35
2022-11-19T09:45:16.454Z,2.61
2022-11-19T09:46:29.580Z,2.71
2022-11-19T09:47:45.252Z,2.53
2022-11-19T09:48:42.567Z,2.32
2022-11-19T09:49:39.890Z,2.83
2022-11-19T09:51:00.100Z,2.99
2022-11-19T09:52:12.260Z,2.85
2022-11-19T09:53:15.479Z,3.13
2022-11-19T09:54:17.556Z,3.19
2022-11-19T09:55:19.416Z,2.99
2022-11-19T09:56:21.508Z,3.09
2022-11-19T09:57:28.421Z,3.23
2022-11-19T09:58:37.635Z,3.19
2022-11-19T09:59:41.521Z,3.47
2022-11-19T10:00:38.847Z,3.79
2022-11-19T10:01:37.538Z,3.69
2022-11-19T10:02:35.156Z,3.28
2022-11-19T10:03:33.986Z,3.42
2022-11-19T10:04:33.531Z,3.91
2022-11-19T10:05:38.549Z,3.69
2022-11-19T10:06:44.785Z,3.38
2022-11-19T10:08:01.699Z,3.30
2022-11-19T10:09:17.422Z,3.70
2022-11-19T10:10:34.235Z,3.14
2022-11-19T10:11:57.263Z,3.18
2022-11-19T10:12:57.116Z,3.50
2022-11-19T10:14:12.638Z,3.26
2022-11-19T10:15:20.677Z,3.10
2022-11-19T10:16:20.822Z,2.64
2022-11-19T10:17:30.207Z,3.20
2022-11-19T10:18:42.613Z,3.25
2022-11-19T10:19:55.672Z,2.96
2022-11-19T10:20:58.826Z,3.64
2022-11-19T10:22:16.378Z,3.80
2022-11-19T10:23:19.145Z,3.91
2022-11-19T10:24:26.350Z,3.71
2022-11-19T10:25:31.860Z,4.09
2022-11-19T10:26:35.325Z,3.97
2022-11-19T10:27:40.569Z,3.91
2022-11-19T10:28:40.931Z,3.91
2022-11-19T10:29:40.379Z,3.90
2022-11-19T10:30:40.920Z,4.01
2022-11-19T10:31:39.871Z,3.84
2022-11-19T10:32:43.278Z,4.01
2022-11-19T10:33:58.043Z,4.09
2022-11-19T10:34:59.829Z,4.06
2022-11-19T10:36:02.064Z,3.61
2022-11-19T10:37:10.598Z,3.59
2022-11-19T10:38:22.811Z,3.93
2022-11-19T10:39:26.207Z,3.78
2022-11-19T10:40:26.198Z,4.53
2022-11-19T10:41:42.271Z,4.08
2022-11-19T10:42:44.917Z,4.07
2022-11-19T10:43:54.149Z,3.72
2022-11-19T10:44:51.387Z,3.96
2022-11-19T10:45:48.792Z,4.40
2022-11-19T10:46:48.852Z,4.34
2022-11-19T10:47:58.251Z,3.85
2022-11-19T10:48:57.974Z,4.20
2022-11-19T10:49:55.843Z,4.28
2022-11-19T10:50:53.222Z,4.27
2022-11-19T10:51:50.833Z,4.13
2022-11-19T10:53:00.259Z,4.24
2022-11-19T10:53:57.858Z,3.92
2022-11-19T10:55:04.119Z,3.84
2022-11-19T10:56:04.258Z,4.31
2022-11-19T10:57:02.943Z,4.35
2022-11-19T10:58:07.252Z,4.60
2022-11-19T10:59:18.920Z,4.96
2022-11-19T11:00:17.362Z,5.82
2022-11-19T11:01:28.686Z,4.50
2022-11-19T11:02:40.071Z,3.92
2022-11-19T11:03:57.632Z,3.85
2022-11-19T11:05:04.167Z,3.67
2022-11-19T11:06:05.367Z,3.64
2022-11-19T11:07:04.935Z,3.90
2022-11-19T11:08:10.809Z,4.90
2022-11-19T11:09:13.792Z,5.04
2022-11-19T11:10:29.622Z,5.21
2022-11-19T11:11:49.820Z,3.92
2022-11-19T11:13:05.568Z,3.79
2022-11-19T11:14:21.324Z,4.03
2022-11-19T11:15:23.429Z,3.85
2022-11-19T11:16:26.700Z,3.87
2022-11-19T11:17:26.897Z,3.82
2022-11-19T11:18:27.168Z,3.91
2022-11-19T11:19:25.269Z,3.44
2022-11-19T11:20:27.269Z,4.19
2022-11-19T11:21:36.885Z,3.93
2022-11-19T11:22:35.832Z,3.67
2022-11-19T11:23:34.106Z,3.77
2022-11-19T11:24:37.012Z,4.24
2022-11-19T11:25:34.855Z,3.91
2022-11-19T11:26:33.958Z,3.30
2022-11-19T11:27:33.648Z,3.41
2022-11-19T11:28:31.852Z,3.80
2022-11-19T11:29:29.287Z,3.55
2022-11-19T11:30:26.652Z,3.48
2022-11-19T11:31:29.113Z,3.47
2022-11-19T11:32:28.438Z,3.68
2022-11-19T11:33:30.641Z,3.66
2022-11-19T11:34:31.307Z,3.51
2022-11-19T11:35:31.305Z,3.23
2022-11-19T11:36:31.924Z,3.30
2022-11-19T11:37:31.229Z,3.36
2022-11-19T11:38:30.032Z,3.31
2022-11-19T11:39:32.565Z,3.43
2022-11-19T11:40:30.652Z,3.18
2022-11-19T11:42:55.388Z,2.84
2022-11-19T11:44:03.395Z,3.08
2022-11-19T11:45:01.844Z,3.04
2022-11-19T11:46:01.241Z,3.18
2022-11-19T11:47:01.687Z,3.31
2022-11-19T11:48:06.201Z,2.94
2022-11-19T11:49:11.345Z,2.81
2022-11-19T11:50:23.221Z,3.13
2022-11-19T11:51:34.618Z,2.97
2022-11-19T11:52:41.365Z,2.55
2022-11-19T11:53:38.804Z,2.90
2022-11-19T11:54:37.141Z,3.06
2022-11-19T11:55:34.570Z,3.43
2022-11-19T11:56:32.156Z,3.23
2022-11-19T11:57:31.298Z,3.64
2022-11-19T11:58:28.630Z,3.42
2022-11-19T11:59:30.960Z,3.18
2022-11-19T12:00:30.504Z,3.21
2022-11-19T12:01:28.090Z,3.04
2022-11-19T12:02:33.146Z,3.45
2022-11-19T12:03:34.507Z,3.19
2022-11-19T12:04:35.937Z,3.55
2022-11-19T12:05:56.408Z,2.97
2022-11-19T12:07:02.860Z,3.02
2022-11-19T12:08:04.617Z,3.12
2022-11-19T12:09:20.477Z,3.02
2022-11-19T12:10:40.446Z,2.83
2022-11-19T12:11:56.438Z,3.45
2022-11-19T12:13:12.195Z,3.31
2022-11-19T12:14:11.241Z,3.17
2022-11-19T12:15:08.810Z,3.19
2022-11-19T12:16:14.369Z,3.01
2022-11-19T12:17:30.254Z,3.10
2022-11-19T12:18:27.552Z,2.94
2022-11-19T12:19:28.034Z,3.10
2022-11-19T12:20:34.168Z,3.02
2022-11-19T12:21:52.735Z,2.99
2022-11-19T12:22:55.852Z,2.67
2022-11-19T12:23:53.365Z,3.10
2022-11-19T12:25:09.092Z,3.06
2022-11-19T12:26:23.360Z,3.13
2022-11-19T12:27:26.543Z,3.34
2022-11-19T12:28:51.756Z,3.13
2022-11-19T12:30:00.317Z,3.36
2022-11-19T12:31:06.113Z,3.85
2022-11-19T12:32:07.527Z,3.51
2022-11-19T12:33:04.919Z,3.84
2022-11-19T12:34:05.012Z,3.86
2022-11-19T12:35:02.510Z,4.11
2022-11-19T12:36:20.265Z,5.12
2022-11-19T12:37:33.962Z,4.09
2022-11-19T12:38:35.300Z,3.98
2022-11-19T12:39:35.186Z,3.85
2022-11-19T12:40:41.983Z,4.00
2022-11-19T12:42:09.358Z,3.99
2022-11-19T12:43:15.587Z,3.91
2022-11-19T12:44:12.943Z,4.05
2022-11-19T12:45:36.386Z,3.79
2022-11-19T12:46:36.914Z,5.11
2022-11-19T12:47:49.491Z,4.07
2022-11-19T12:49:02.034Z,3.63
2022-11-19T12:50:22.374Z,6.13
2022-11-19T12:51:31.635Z,23.33
2022-11-19T12:52:35.560Z,6.66
2022-11-19T12:53:32.905Z,5.21
2022-11-19T12:54:48.605Z,5.82
2022-11-19T12:55:45.879Z,4.41
2022-11-19T12:56:46.740Z,3.64
2022-11-19T12:58:02.617Z,4.13
2022-11-19T12:59:08.556Z,6.31
2022-11-19T13:00:15.305Z,5.58
2022-11-19T13:01:19.778Z,6.04
2022-11-19T13:02:22.873Z,7.02
2022-11-19T13:03:26.241Z,4.93
2022-11-19T13:04:38.656Z,4.19
2022-11-19T13:05:51.659Z,5.06
2022-11-19T13:06:53.412Z,4.67
2022-11-19T13:08:02.666Z,5.48
2022-11-19T13:09:08.332Z,3.98
2022-11-19T13:10:24.479Z,3.93
2022-11-19T13:11:21.903Z,3.70
2022-11-19T13:12:26.483Z,3.40
2022-11-19T13:13:29.729Z,4.01
2022-11-19T13:14:34.025Z,3.57
2022-11-19T13:15:47.112Z,3.65
2022-11-19T13:16:46.589Z,3.38
2022-11-19T13:17:47.879Z,3.44
2022-11-19T13:18:52.110Z,3.06
2022-11-19T13:19:54.193Z,3.03
2022-11-19T13:20:59.657Z,2.66
2022-11-19T13:22:00.670Z,2.99
2022-11-19T13:23:02.286Z,3.10
2022-11-19T13:24:06.488Z,2.73
2022-11-19T13:25:06.896Z,2.86
2022-11-19T13:26:16.924Z,3.06
2022-11-19T13:27:23.092Z,2.49
2022-11-19T13:28:36.793Z,2.86
2022-11-19T13:29:34.246Z,2.87
2022-11-19T13:30:34.781Z,3.14
2022-11-19T13:31:37.469Z,3.11
2022-11-19T13:32:39.552Z,2.71
2022-11-19T13:34:12.109Z,2.37
2022-11-19T13:35:19.372Z,2.62
2022-11-19T13:36:25.504Z,3.05